createdAt,value
2022-08-26T00:01:30.152Z,27.75
2022-08-26T00:03:56.936Z,27.70
2022-08-26T00:06:24.594Z,27.66
2022-08-26T00:08:51.318Z,27.62
2022-08-26T00:11:26.705Z,27.57
2022-08-26T00:13:54.871Z,27.54
2022-08-26T00:16:23.572Z,27.50
2022-08-26T00:18:50.258Z,27.48
2022-08-26T00:21:17.295Z,27.45
2022-08-26T00:23:44.606Z,27.40
2022-08-26T00:26:11.239Z,27.37
2022-08-26T00:28:38.018Z,27.33
2022-08-26T00:31:07.308Z,27.28
2022-08-26T00:33:33.922Z,27.24
2022-08-26T00:36:01.692Z,27.20
2022-08-26T00:38:30.435Z,27.16
2022-08-26T00:40:57.541Z,27.12
2022-08-26T00:43:26.122Z,27.11
2022-08-26T00:46:03.835Z,27.11
2022-08-26T00:48:32.284Z,27.08
2022-08-26T00:51:11.179Z,27.09
2022-08-26T00:53:45.419Z,27.08
2022-08-26T00:56:24.936Z,27.06
2022-08-26T00:58:51.922Z,27.05
2022-08-26T01:01:18.953Z,27.04
2022-08-26T01:03:50.228Z,27.04
2022-08-26T01:06:16.805Z,27.03
2022-08-26T01:08:43.693Z,27.02
2022-08-26T01:11:11.811Z,27.02
2022-08-26T01:13:39.803Z,27.02
2022-08-26T01:16:10.581Z,27.01
2022-08-26T01:18:37.293Z,27.01
2022-08-26T01:21:21.618Z,27.00
2022-08-26T01:23:51.729Z,26.99
2022-08-26T01:26:36.570Z,26.99
2022-08-26T01:29:06.600Z,26.97
2022-08-26T01:31:41.855Z,26.93
2022-08-26T01:34:16.982Z,26.92
2022-08-26T01:36:47.937Z,26.87
2022-08-26T01:39:18.499Z,26.85
2022-08-26T01:41:46.248Z,26.80
2022-08-26T01:44:17.337Z,26.77
2022-08-26T01:46:46.377Z,26.70
2022-08-26T01:49:15.149Z,26.66
2022-08-26T01:51:44.405Z,26.62
2022-08-26T01:54:13.745Z,26.57
2022-08-26T01:56:41.076Z,26.53
2022-08-26T01:59:12.409Z,26.51
2022-08-26T02:01:40.242Z,26.45
2022-08-26T02:04:15.836Z,26.40
2022-08-26T02:06:43.536Z,26.35
2022-08-26T02:09:11.323Z,26.30
2022-08-26T02:11:38.603Z,26.23
2022-08-26T02:14:12.491Z,26.17
2022-08-26T02:16:45.434Z,26.10
2022-08-26T02:19:18.746Z,26.03
2022-08-26T02:21:51.236Z,25.94
2022-08-26T02:24:27.546Z,25.84
2022-08-26T02:26:55.871Z,25.72
2022-08-26T02:29:24.682Z,25.60
2022-08-26T02:31:52.465Z,25.48
2022-08-26T02:34:21.736Z,25.36
2022-08-26T02:36:49.361Z,25.26
2022-08-26T02:39:22.149Z,25.17
2022-08-26T02:41:49.636Z,25.09
2022-08-26T02:44:16.161Z,25.05
2022-08-26T02:46:46.933Z,24.98
2022-08-26T02:49:14.994Z,24.92
2022-08-26T02:51:41.527Z,24.85
2022-08-26T02:54:09.624Z,24.78
2022-08-26T02:56:36.299Z,24.73
2022-08-26T02:59:02.805Z,24.68
2022-08-26T03:01:34.174Z,24.65
2022-08-26T03:04:03.420Z,24.62
2022-08-26T03:06:30.152Z,24.59
2022-08-26T03:08:57.055Z,24.55
2022-08-26T03:11:27.540Z,24.52
2022-08-26T03:13:56.182Z,24.48
2022-08-26T03:16:23.049Z,24.43
2022-08-26T03:18:52.244Z,24.40
2022-08-26T03:21:19.501Z,24.36
2022-08-26T03:23:46.119Z,24.31
2022-08-26T03:26:14.417Z,24.28
2022-08-26T03:29:01.114Z,24.22
2022-08-26T03:31:29.774Z,24.20
2022-08-26T03:33:59.786Z,24.15
2022-08-26T03:36:26.659Z,24.08
2022-08-26T03:38:53.631Z,24.02
2022-08-26T03:41:21.329Z,23.98
2022-08-26T03:43:50.710Z,23.95
2022-08-26T03:46:18.585Z,23.91
2022-08-26T03:48:45.773Z,23.88
2022-08-26T03:51:19.025Z,23.86
2022-08-26T03:53:46.923Z,23.83
2022-08-26T03:56:15.235Z,23.81
2022-08-26T03:58:42.886Z,23.79
2022-08-26T04:01:09.589Z,23.77
2022-08-26T04:03:54.806Z,23.75
2022-08-26T04:06:21.403Z,23.73
2022-08-26T04:08:48.301Z,23.71
2022-08-26T04:11:19.898Z,23.70
2022-08-26T04:13:47.973Z,23.66
2022-08-26T04:16:17.928Z,23.64
2022-08-26T04:18:46.771Z,23.60
2022-08-26T04:21:15.312Z,23.55
2022-08-26T04:23:47.731Z,23.50
2022-08-26T04:26:15.462Z,23.43
2022-08-26T04:28:41.970Z,23.36
2022-08-26T04:31:13.065Z,23.30
2022-08-26T04:33:41.725Z,23.22
2022-08-26T04:36:08.815Z,23.17
2022-08-26T04:38:35.461Z,23.12
2022-08-26T04:41:03.285Z,23.09
2022-08-26T04:43:31.983Z,23.03
2022-08-26T04:46:03.360Z,23.00
2022-08-26T04:48:31.116Z,22.93
2022-08-26T04:50:58.564Z,22.89
2022-08-26T04:53:26.080Z,22.86
2022-08-26T04:55:55.123Z,22.83
2022-08-26T04:58:23.148Z,22.81
2022-08-26T05:00:52.382Z,22.76
2022-08-26T05:03:21.439Z,22.73
2022-08-26T05:05:50.073Z,22.70
2022-08-26T05:08:19.328Z,22.68
2022-08-26T05:10:48.843Z,22.68
2022-08-26T05:13:18.736Z,22.68
2022-08-26T05:15:48.240Z,22.68
2022-08-26T05:18:17.770Z,22.69
2022-08-26T05:20:49.531Z,22.69
2022-08-26T05:23:16.911Z,22.68
2022-08-26T05:25:46.548Z,22.66
2022-08-26T05:28:15.241Z,22.65
2022-08-26T05:30:42.895Z,22.64
2022-08-26T05:33:12.091Z,22.63
2022-08-26T05:35:39.469Z,22.62
2022-08-26T05:38:12.387Z,22.64
2022-08-26T05:40:43.144Z,22.66
2022-08-26T05:43:13.373Z,22.66
2022-08-26T05:45:46.081Z,22.69
2022-08-26T05:48:14.164Z,22.72
2022-08-26T05:50:43.209Z,22.74
2022-08-26T05:53:11.329Z,22.74
2022-08-26T05:55:48.590Z,22.81
2022-08-26T05:58:17.437Z,22.84
2022-08-26T06:00:44.577Z,22.89
2022-08-26T06:03:11.332Z,22.92
2022-08-26T06:05:39.834Z,22.97
2022-08-26T06:08:14.004Z,23.03
2022-08-26T06:11:00.519Z,23.10
2022-08-26T06:13:31.945Z,23.12
2022-08-26T06:15:59.661Z,23.17
2022-08-26T06:18:36.254Z,23.22
2022-08-26T06:21:19.809Z,23.27
2022-08-26T06:24:06.875Z,23.32
2022-08-26T06:26:35.660Z,23.36
2022-08-26T06:29:04.739Z,23.41
2022-08-26T06:31:33.367Z,23.46
2022-08-26T06:34:00.171Z,23.50
2022-08-26T06:36:30.648Z,23.54
2022-08-26T06:39:04.530Z,23.58
2022-08-26T06:41:33.514Z,23.61
2022-08-26T06:44:02.503Z,23.65
2022-08-26T06:46:29.583Z,23.71
2022-08-26T06:48:58.281Z,23.77
2022-08-26T06:51:30.476Z,23.85
2022-08-26T06:54:00.130Z,23.91
2022-08-26T06:56:32.743Z,24.00
2022-08-26T06:58:59.545Z,24.06
2022-08-26T07:01:29.331Z,24.12
2022-08-26T07:03:58.545Z,24.15
2022-08-26T07:06:27.418Z,24.18
2022-08-26T07:09:01.674Z,24.21
2022-08-26T07:11:29.906Z,24.26
2022-08-26T07:13:58.919Z,24.28
2022-08-26T07:16:28.256Z,24.31
2022-08-26T07:18:57.397Z,24.34
2022-08-26T07:21:24.921Z,24.36
2022-08-26T07:23:57.503Z,24.37
2022-08-26T07:26:30.055Z,24.40
2022-08-26T07:28:58.303Z,24.40
2022-08-26T07:31:27.894Z,24.41
2022-08-26T07:33:56.780Z,24.44
2022-08-26T07:36:24.495Z,24.47
2022-08-26T07:38:51.800Z,24.52
2022-08-26T07:41:22.708Z,24.57
2022-08-26T07:43:49.994Z,24.63
2022-08-26T07:46:20.664Z,24.70
2022-08-26T07:48:53.478Z,24.77
2022-08-26T07:51:21.879Z,24.85
2022-08-26T07:53:52.325Z,24.94
2022-08-26T07:56:20.023Z,25.04
2022-08-26T07:58:51.516Z,25.13
2022-08-26T08:01:24.158Z,25.22
2022-08-26T08:03:52.072Z,25.31
2022-08-26T08:06:20.276Z,25.37
2022-08-26T08:08:47.539Z,25.44
2022-08-26T08:11:14.652Z,25.47
2022-08-26T08:13:41.451Z,25.50
2022-08-26T08:16:12.701Z,25.51
2022-08-26T08:18:40.132Z,25.50
2022-08-26T08:21:24.144Z,25.49
2022-08-26T08:23:53.084Z,25.46
2022-08-26T08:26:19.967Z,25.43
2022-08-26T08:28:47.836Z,25.38
2022-08-26T08:31:58.413Z,25.36
2022-08-26T08:34:35.445Z,25.35
2022-08-26T08:37:01.901Z,25.34
2022-08-26T08:39:31.552Z,25.37
2022-08-26T08:42:30.331Z,25.40
2022-08-26T08:44:59.785Z,25.46
2022-08-26T08:47:34.517Z,25.48
2022-08-26T08:50:35.314Z,25.51
2022-08-26T08:53:18.958Z,25.57
2022-08-26T08:55:57.289Z,25.62
2022-08-26T08:58:43.610Z,25.71
2022-08-26T09:01:15.262Z,25.77
2022-08-26T09:04:20.450Z,25.83
2022-08-26T09:06:49.782Z,25.87
2022-08-26T09:09:39.549Z,25.94
2022-08-26T09:12:13.075Z,26.00
2022-08-26T09:14:40.700Z,26.05
2022-08-26T09:17:33.052Z,26.14
2022-08-26T09:20:23.983Z,26.21
2022-08-26T09:22:51.391Z,26.26
2022-08-26T09:25:18.708Z,26.31
2022-08-26T09:27:50.492Z,26.37
2022-08-26T09:30:30.975Z,26.42
2022-08-26T09:33:11.306Z,26.48
2022-08-26T09:35:41.160Z,26.53
2022-08-26T09:38:40.421Z,26.60
2022-08-26T09:41:22.017Z,26.65
2022-08-26T09:44:15.728Z,26.68
2022-08-26T09:46:54.117Z,26.70
2022-08-26T09:49:31.640Z,26.72
2022-08-26T09:52:25.963Z,26.76
2022-08-26T09:55:09.739Z,26.78
2022-08-26T09:57:45.669Z,26.80
2022-08-26T10:00:38.507Z,26.78
2022-08-26T10:03:17.356Z,26.75
2022-08-26T10:05:54.817Z,26.72
2022-08-26T10:08:30.004Z,26.75
2022-08-26T10:11:00.078Z,26.79
2022-08-26T10:13:42.260Z,26.86
2022-08-26T10:16:30.431Z,26.94
2022-08-26T10:19:07.611Z,26.99
2022-08-26T10:21:56.182Z,27.05
2022-08-26T10:24:30.372Z,27.12
2022-08-26T10:27:10.988Z,27.19
2022-08-26T10:29:45.810Z,27.24
2022-08-26T10:32:27.575Z,27.28
2022-08-26T10:34:54.395Z,27.32
2022-08-26T10:37:23.946Z,27.37
2022-08-26T10:40:15.861Z,27.43
2022-08-26T10:42:48.729Z,27.48
2022-08-26T10:45:20.079Z,27.53
2022-08-26T10:48:07.281Z,27.58
2022-08-26T10:50:43.094Z,27.64
2022-08-26T10:53:47.494Z,27.70
2022-08-26T10:56:46.502Z,27.77
2022-08-26T10:59:40.526Z,27.83
2022-08-26T11:02:15.492Z,27.89
2022-08-26T11:04:51.121Z,27.96
2022-08-26T11:07:31.720Z,28.01
2022-08-26T11:10:21.300Z,28.05
2022-08-26T11:12:55.307Z,28.05
2022-08-26T11:15:29.462Z,28.08
2022-08-26T11:18:20.842Z,28.10
2022-08-26T11:20:51.553Z,28.14
2022-08-26T11:23:22.303Z,28.21
2022-08-26T11:26:10.958Z,28.29
2022-08-26T11:28:44.510Z,28.35
2022-08-26T11:31:33.214Z,28.42
2022-08-26T11:34:03.378Z,28.51
2022-08-26T11:36:45.392Z,28.58
2022-08-26T11:39:21.132Z,28.63
2022-08-26T11:41:49.418Z,28.68
2022-08-26T11:44:23.481Z,28.74
2022-08-26T11:46:57.246Z,28.81
2022-08-26T11:49:24.896Z,28.86
2022-08-26T11:51:51.753Z,28.93
2022-08-26T11:54:35.327Z,29.01
2022-08-26T11:57:09.425Z,29.06
2022-08-26T11:59:40.049Z,29.13
2022-08-26T12:02:15.440Z,29.19
2022-08-26T12:04:46.352Z,29.23
2022-08-26T12:07:13.391Z,29.27
2022-08-26T12:09:53.045Z,29.31
2022-08-26T12:12:34.780Z,29.34
2022-08-26T12:15:18.600Z,29.34
2022-08-26T12:17:51.736Z,29.30
2022-08-26T12:20:48.449Z,29.32
2022-08-26T12:23:22.659Z,29.33
2022-08-26T12:25:52.650Z,29.34
2022-08-26T12:28:31.122Z,29.34
2022-08-26T12:31:02.724Z,29.36
2022-08-26T12:33:30.197Z,29.37
2022-08-26T12:35:59.246Z,29.42
2022-08-26T12:38:27.459Z,29.49
2022-08-26T12:40:55.025Z,29.58
2022-08-26T12:43:43.426Z,29.64
2022-08-26T12:46:15.814Z,29.67
2022-08-26T12:48:47.335Z,29.70
2022-08-26T12:51:24.566Z,29.75
2022-08-26T12:53:51.740Z,29.81
2022-08-26T12:56:20.136Z,29.87
2022-08-26T12:59:00.892Z,29.94
2022-08-26T13:01:27.566Z,29.98
2022-08-26T13:03:54.152Z,30.01
2022-08-26T13:06:20.536Z,30.04
2022-08-26T13:08:54.037Z,30.08
2022-08-26T13:11:25.718Z,30.12
2022-08-26T13:14:00.357Z,30.16
2022-08-26T13:16:28.412Z,30.16
2022-08-26T13:19:03.983Z,30.16
2022-08-26T13:21:37.678Z,30.15
2022-08-26T13:24:17.857Z,30.15
2022-08-26T13:26:46.271Z,30.09
2022-08-26T13:29:13.238Z,30.03
2022-08-26T13:31:41.792Z,29.97
2022-08-26T13:34:10.702Z,29.91
2022-08-26T13:36:37.281Z,29.85
2022-08-26T13:39:05.203Z,29.80
2022-08-26T13:41:32.367Z,29.77
2022-08-26T13:43:59.672Z,29.77
2022-08-26T13:46:27.923Z,29.79
2022-08-26T13:48:55.255Z,29.84
2022-08-26T13:51:22.890Z,29.91
2022-08-26T13:53:50.565Z,29.98
2022-08-26T13:56:18.670Z,30.06
2022-08-26T13:58:46.044Z,30.12
2022-08-26T14:01:13.424Z,30.17
2022-08-26T14:03:40.036Z,30.18
2022-08-26T14:06:06.645Z,30.21
2022-08-26T14:08:33.096Z,30.21
2022-08-26T14:10:59.821Z,30.18
2022-08-26T14:13:26.851Z,30.14
2022-08-26T14:15:53.957Z,30.09
2022-08-26T14:18:28.284Z,30.07
2022-08-26T14:20:55.166Z,30.04
2022-08-26T14:23:22.621Z,30.02
2022-08-26T14:25:49.320Z,30.01
2022-08-26T14:28:15.909Z,30.02
2022-08-26T14:30:43.932Z,30.01
2022-08-26T14:33:13.223Z,29.99
2022-08-26T14:35:39.937Z,29.94
2022-08-26T14:38:14.900Z,29.85
2022-08-26T14:40:44.628Z,29.74
2022-08-26T14:43:15.107Z,29.64
2022-08-26T14:45:45.136Z,29.56
2022-08-26T14:48:11.631Z,29.50
2022-08-26T14:50:38.310Z,29.44
2022-08-26T14:53:23.452Z,29.40
2022-08-26T14:55:50.518Z,29.37
2022-08-26T14:58:17.296Z,29.34
2022-08-26T15:00:43.928Z,29.31
2022-08-26T15:03:10.499Z,29.31
2022-08-26T15:05:37.226Z,29.30
2022-08-26T15:08:10.191Z,29.32
2022-08-26T15:10:36.986Z,29.34
2022-08-26T15:13:03.526Z,29.35
2022-08-26T15:15:30.075Z,29.35
2022-08-26T15:17:56.889Z,29.35
2022-08-26T15:20:23.434Z,29.30
2022-08-26T15:22:50.029Z,29.27
2022-08-26T15:25:18.067Z,29.23
2022-08-26T15:27:44.756Z,29.21
2022-08-26T15:30:12.371Z,29.16
2022-08-26T15:32:39.096Z,29.13
2022-08-26T15:35:09.084Z,29.10
2022-08-26T15:37:36.517Z,29.05
2022-08-26T15:40:03.776Z,28.98
2022-08-26T15:42:30.429Z,28.91
2022-08-26T15:44:56.938Z,28.78
2022-08-26T15:47:23.788Z,28.67
2022-08-26T15:49:50.240Z,28.53
2022-08-26T15:52:17.273Z,28.38
2022-08-26T15:54:43.774Z,28.25
2022-08-26T15:57:12.347Z,28.12
2022-08-26T15:59:40.213Z,27.99
2022-08-26T16:02:07.326Z,27.87
2022-08-26T16:04:34.067Z,27.77
2022-08-26T16:07:00.932Z,27.69
2022-08-26T16:09:28.779Z,27.62
2022-08-26T16:11:56.250Z,27.56
2022-08-26T16:14:23.877Z,27.51
2022-08-26T16:16:51.011Z,27.47
2022-08-26T16:19:17.765Z,27.40
2022-08-26T16:21:44.770Z,27.36
2022-08-26T16:24:12.032Z,27.29
2022-08-26T16:26:41.252Z,27.23
2022-08-26T16:29:10.329Z,27.17
2022-08-26T16:31:38.339Z,27.11
2022-08-26T16:34:06.667Z,27.07
2022-08-26T16:36:33.723Z,27.04
2022-08-26T16:39:00.636Z,27.00
2022-08-26T16:41:28.944Z,26.98
2022-08-26T16:43:55.934Z,26.96
2022-08-26T16:46:26.037Z,26.93
2022-08-26T16:48:57.830Z,26.92
2022-08-26T16:51:27.168Z,26.89
2022-08-26T16:53:55.223Z,26.87
2022-08-26T16:56:30.595Z,26.86
2022-08-26T16:59:02.185Z,26.82
2022-08-26T17:01:28.810Z,26.80
2022-08-26T17:03:55.412Z,26.78
2022-08-26T17:06:21.955Z,26.78
2022-08-26T17:08:49.466Z,26.76
2022-08-26T17:11:16.923Z,26.75
2022-08-26T17:13:43.465Z,26.73
2022-08-26T17:16:11.659Z,26.70
2022-08-26T17:18:38.648Z,26.70
2022-08-26T17:21:11.019Z,26.69
2022-08-26T17:23:38.617Z,26.66
2022-08-26T17:26:05.305Z,26.63
2022-08-26T17:28:32.269Z,26.60
2022-08-26T17:30:59.620Z,26.56
2022-08-26T17:33:26.682Z,26.52
2022-08-26T17:35:53.648Z,26.48
2022-08-26T17:38:21.215Z,26.42
2022-08-26T17:40:47.775Z,26.37
2022-08-26T17:43:14.228Z,26.31
2022-08-26T17:45:41.422Z,26.26
2022-08-26T17:48:08.151Z,26.20
2022-08-26T17:50:34.923Z,26.13
2022-08-26T17:53:01.423Z,26.07
2022-08-26T17:55:27.995Z,26.00
2022-08-26T17:57:54.596Z,25.93
2022-08-26T18:00:26.412Z,25.88
2022-08-26T18:02:54.406Z,25.81
2022-08-26T18:05:22.242Z,25.76
2022-08-26T18:07:48.763Z,25.71
2022-08-26T18:10:20.706Z,25.65
2022-08-26T18:12:48.573Z,25.55
2022-08-26T18:15:16.806Z,25.47
2022-08-26T18:17:43.892Z,25.39
2022-08-26T18:20:13.106Z,25.31
2022-08-26T18:22:40.038Z,25.23
2022-08-26T18:25:08.298Z,25.15
2022-08-26T18:27:36.082Z,25.08
2022-08-26T18:30:13.408Z,25.03
2022-08-26T18:32:42.501Z,24.96
2022-08-26T18:35:10.374Z,24.90
2022-08-26T18:37:37.471Z,24.84
2022-08-26T18:40:07.231Z,24.79
2022-08-26T18:42:34.015Z,24.72
2022-08-26T18:45:00.728Z,24.67
2022-08-26T18:47:27.324Z,24.60
2022-08-26T18:49:53.860Z,24.53
2022-08-26T18:52:20.265Z,24.48
2022-08-26T18:54:46.726Z,24.43
2022-08-26T18:57:13.242Z,24.39
2022-08-26T18:59:40.901Z,24.36
2022-08-26T19:02:08.416Z,24.32
2022-08-26T19:04:37.217Z,24.29
2022-08-26T19:07:04.118Z,24.26
2022-08-26T19:09:31.581Z,24.22
2022-08-26T19:11:58.834Z,24.19
2022-08-26T19:14:25.297Z,24.18
2022-08-26T19:16:52.660Z,24.17
2022-08-26T19:19:21.118Z,24.15
2022-08-26T19:21:48.072Z,24.09
2022-08-26T19:24:17.572Z,24.05
2022-08-26T19:26:49.132Z,23.99
2022-08-26T19:31:49.127Z,23.83
2022-08-26T19:34:16.199Z,23.76
2022-08-26T19:36:47.490Z,23.67
2022-08-26T19:39:14.316Z,23.61
2022-08-26T19:41:41.007Z,23.54
2022-08-26T19:44:23.474Z,23.51
2022-08-26T19:46:49.936Z,23.48
2022-08-26T19:49:16.392Z,23.46
2022-08-26T19:51:42.833Z,23.44
2022-08-26T19:54:09.278Z,23.44
2022-08-26T19:56:35.723Z,23.42
2022-08-26T19:59:02.321Z,23.40
2022-08-26T20:01:28.903Z,23.39
2022-08-26T20:06:26.828Z,23.37
2022-08-26T20:08:53.876Z,23.36
2022-08-26T20:11:21.491Z,23.35
2022-08-26T20:13:47.990Z,23.31
2022-08-26T20:16:15.944Z,23.30
2022-08-26T20:19:02.886Z,23.26
2022-08-26T20:21:34.124Z,23.25
2022-08-26T20:24:05.354Z,23.21
2022-08-26T20:26:34.602Z,23.17
2022-08-26T20:29:01.388Z,23.14
2022-08-26T20:31:28.479Z,23.12
2022-08-26T20:33:55.325Z,23.09
2022-08-26T20:36:23.794Z,23.07
2022-08-26T20:38:50.639Z,23.04
2022-08-26T20:41:18.310Z,23.02
2022-08-26T20:43:46.499Z,22.98
2022-08-26T20:46:18.745Z,22.95
2022-08-26T20:48:47.997Z,22.93
2022-08-26T20:51:15.400Z,22.91
2022-08-26T20:53:42.002Z,22.88
2022-08-26T20:56:10.198Z,22.87
2022-08-26T20:58:38.386Z,22.84
2022-08-26T21:01:07.946Z,22.81
2022-08-26T21:03:35.966Z,22.78
2022-08-26T21:06:03.648Z,22.77
2022-08-26T21:08:30.664Z,22.75
2022-08-26T21:11:00.176Z,22.74
2022-08-26T21:13:26.745Z,22.73
2022-08-26T21:15:58.114Z,22.72
2022-08-26T21:18:25.234Z,22.69
2022-08-26T21:20:51.699Z,22.65
2022-08-26T21:23:18.606Z,22.65
2022-08-26T21:25:46.597Z,22.64
2022-08-26T21:28:13.487Z,22.64
2022-08-26T21:30:40.983Z,22.64
2022-08-26T21:33:08.483Z,22.66
2022-08-26T21:35:35.398Z,22.67
2022-08-26T21:38:02.072Z,22.66
2022-08-26T21:40:28.632Z,22.65
2022-08-26T21:42:55.133Z,22.63
2022-08-26T21:45:21.786Z,22.62
2022-08-26T21:47:48.277Z,22.61
2022-08-26T21:50:14.737Z,22.57
2022-08-26T21:52:41.297Z,22.55
2022-08-26T21:55:08.864Z,22.52
2022-08-26T21:57:35.680Z,22.51
2022-08-26T22:00:04.716Z,22.49
2022-08-26T22:02:31.409Z,22.51
2022-08-26T22:04:57.932Z,22.50
2022-08-26T22:07:24.458Z,22.49
2022-08-26T22:09:50.936Z,22.50
2022-08-26T22:12:18.286Z,22.51
2022-08-26T22:14:45.731Z,22.50
2022-08-26T22:17:12.373Z,22.51
2022-08-26T22:19:45.696Z,22.50
2022-08-26T22:22:14.788Z,22.51
2022-08-26T22:24:43.190Z,22.50
2022-08-26T22:27:11.874Z,22.49
2022-08-26T22:29:38.674Z,22.49
2022-08-26T22:32:05.629Z,22.48
2022-08-26T22:34:32.176Z,22.47
2022-08-26T22:36:59.143Z,22.46
2022-08-26T22:39:26.383Z,22.44
2022-08-26T22:41:53.500Z,22.43
2022-08-26T22:44:22.285Z,22.40
2022-08-26T22:46:50.226Z,22.38
2022-08-26T22:49:17.377Z,22.35
2022-08-26T22:51:45.165Z,22.34
2022-08-26T22:54:12.102Z,22.31
2022-08-26T22:56:39.332Z,22.30
2022-08-26T22:59:07.770Z,22.29
2022-08-26T23:01:36.769Z,22.27
2022-08-26T23:04:04.822Z,22.23
2022-08-26T23:06:31.309Z,22.20
2022-08-26T23:08:57.997Z,22.19
2022-08-26T23:11:24.487Z,22.14
2022-08-26T23:13:50.927Z,22.10
2022-08-26T23:16:17.432Z,22.09
2022-08-26T23:18:43.974Z,22.06
2022-08-26T23:21:10.709Z,22.04
2022-08-26T23:23:38.368Z,22.03
2022-08-26T23:26:06.964Z,22.01
2022-08-26T23:28:34.841Z,22.00
2022-08-26T23:31:01.776Z,21.99
2022-08-26T23:33:48.163Z,21.98
2022-08-26T23:36:17.688Z,21.95
2022-08-26T23:38:44.740Z,21.92
2022-08-26T23:41:18.853Z,21.90
2022-08-26T23:43:45.321Z,21.89
2022-08-26T23:46:11.843Z,21.86
2022-08-26T23:48:38.626Z,21.85
2022-08-26T23:51:23.688Z,21.84
2022-08-26T23:53:50.675Z,21.82
2022-08-26T23:56:17.727Z,21.80
2022-08-26T23:58:44.517Z,21.76
